createdAt,value
2023-02-16T00:00:15.129Z,21.45
2023-02-16T00:03:23.620Z,21.44
2023-02-16T00:06:27.831Z,21.42
2023-02-16T00:09:30.635Z,21.41
2023-02-16T00:12:50.872Z,21.39
2023-02-16T00:15:53.725Z,21.37
2023-02-16T00:18:57.924Z,21.36
2023-02-16T00:22:01.824Z,21.35
2023-02-16T00:25:04.837Z,21.33
2023-02-16T00:28:14.432Z,21.31
2023-02-16T00:31:21.455Z,21.31
2023-02-16T00:34:35.264Z,21.30
2023-02-16T00:37:38.203Z,21.29
2023-02-16T00:40:43.046Z,21.29
2023-02-16T00:43:46.722Z,21.28
2023-02-16T00:46:49.720Z,21.28
2023-02-16T00:49:55.551Z,21.27
2023-02-16T00:52:59.290Z,21.28
2023-02-16T00:56:02.178Z,21.26
2023-02-16T00:59:08.540Z,21.26
2023-02-16T01:02:13.902Z,21.26
2023-02-16T01:05:18.162Z,21.25
2023-02-16T01:08:38.656Z,21.23
2023-02-16T01:11:41.622Z,21.24
2023-02-16T01:14:47.099Z,21.23
2023-02-16T01:17:50.001Z,21.24
2023-02-16T01:20:54.530Z,21.24
2023-02-16T01:23:57.380Z,21.24
2023-02-16T01:27:00.339Z,21.24
2023-02-16T01:30:03.234Z,21.24
2023-02-16T01:33:06.103Z,21.25
2023-02-16T01:36:22.973Z,21.25
2023-02-16T01:39:25.882Z,21.25
2023-02-16T01:42:36.987Z,21.25
2023-02-16T01:45:42.833Z,21.27
2023-02-16T01:48:45.695Z,21.27
2023-02-16T01:51:56.806Z,21.27
2023-02-16T01:55:06.271Z,21.27
2023-02-16T01:58:19.912Z,21.27
2023-02-16T02:01:40.462Z,21.27
2023-02-16T02:05:05.347Z,21.28
2023-02-16T02:08:17.613Z,21.27
2023-02-16T02:11:25.786Z,21.28
2023-02-16T02:14:37.923Z,21.27
2023-02-16T02:17:41.117Z,21.28
2023-02-16T02:21:16.089Z,21.28
2023-02-16T02:24:53.439Z,21.28
2023-02-16T02:28:04.522Z,21.28
2023-02-16T02:31:12.921Z,21.29
2023-02-16T02:34:26.022Z,21.28
2023-02-16T02:37:41.110Z,21.28
2023-02-16T02:40:55.816Z,21.29
2023-02-16T02:44:09.511Z,21.28
2023-02-16T02:47:12.370Z,21.28
2023-02-16T02:50:39.935Z,21.29
2023-02-16T02:53:49.191Z,21.28
2023-02-16T02:57:16.524Z,21.29
2023-02-16T03:00:44.265Z,21.29
2023-02-16T03:03:50.702Z,21.29
2023-02-16T03:06:57.137Z,21.29
2023-02-16T03:10:20.231Z,21.28
2023-02-16T03:13:25.239Z,21.28
2023-02-16T03:16:35.163Z,21.27
2023-02-16T03:19:57.532Z,21.26
2023-02-16T03:23:19.948Z,21.25
2023-02-16T03:26:41.611Z,21.26
2023-02-16T03:29:47.082Z,21.27
2023-02-16T03:32:52.048Z,21.26
2023-02-16T03:35:55.395Z,21.26
2023-02-16T03:38:59.536Z,21.27
2023-02-16T03:42:03.065Z,21.28
2023-02-16T03:45:06.440Z,21.30
2023-02-16T03:48:10.809Z,21.32
2023-02-16T03:51:13.620Z,21.34
2023-02-16T03:54:16.485Z,21.37
2023-02-16T03:57:19.404Z,21.39
2023-02-16T04:00:22.834Z,21.39
2023-02-16T04:03:27.712Z,21.41
2023-02-16T04:06:30.508Z,21.40
2023-02-16T04:09:33.318Z,21.40
2023-02-16T04:12:39.107Z,21.38
2023-02-16T04:15:42.336Z,21.39
2023-02-16T04:18:46.741Z,21.39
2023-02-16T04:21:49.550Z,21.39
2023-02-16T04:24:52.344Z,21.39
2023-02-16T04:27:55.816Z,21.40
2023-02-16T04:30:58.661Z,21.41
2023-02-16T04:34:02.971Z,21.41
2023-02-16T04:37:05.844Z,21.43
2023-02-16T04:40:11.029Z,21.43
2023-02-16T04:43:13.837Z,21.44
2023-02-16T04:46:16.757Z,21.46
2023-02-16T04:49:20.943Z,21.49
2023-02-16T04:52:23.793Z,21.49
2023-02-16T04:55:26.579Z,21.50
2023-02-16T04:58:29.590Z,21.52
2023-02-16T05:01:32.492Z,21.51
2023-02-16T05:04:36.739Z,21.52
2023-02-16T05:07:39.627Z,21.52
2023-02-16T05:10:43.762Z,21.52
2023-02-16T05:14:04.349Z,21.51
2023-02-16T05:17:07.596Z,21.49
2023-02-16T05:20:13.101Z,21.48
2023-02-16T05:23:16.258Z,21.47
2023-02-16T05:26:19.142Z,21.45
2023-02-16T05:29:22.092Z,21.45
2023-02-16T05:32:25.176Z,21.43
2023-02-16T05:35:29.479Z,21.43
2023-02-16T05:38:32.352Z,21.41
2023-02-16T05:41:35.283Z,21.41
2023-02-16T05:44:38.693Z,21.40
2023-02-16T05:47:41.525Z,21.41
2023-02-16T05:50:45.729Z,21.41
2023-02-16T05:53:48.982Z,21.42
2023-02-16T05:56:53.763Z,21.41
2023-02-16T05:59:56.816Z,21.41
2023-02-16T06:02:59.745Z,21.41
2023-02-16T06:06:05.116Z,21.40
2023-02-16T06:09:09.256Z,21.40
2023-02-16T06:12:12.102Z,21.40
2023-02-16T06:15:14.948Z,21.39
2023-02-16T06:18:18.268Z,21.40
2023-02-16T06:21:22.954Z,21.40
2023-02-16T06:24:25.938Z,21.41
2023-02-16T06:27:29.406Z,21.41
2023-02-16T06:30:33.029Z,21.40
2023-02-16T06:33:36.070Z,21.40
2023-02-16T06:36:42.639Z,21.41
2023-02-16T06:39:46.107Z,21.42
2023-02-16T06:42:48.998Z,21.42
2023-02-16T06:45:51.939Z,21.41
2023-02-16T06:48:55.455Z,21.42
2023-02-16T06:51:59.840Z,21.42
2023-02-16T06:55:02.777Z,21.41
2023-02-16T06:58:06.064Z,21.41
2023-02-16T07:01:09.537Z,21.40
2023-02-16T07:04:12.416Z,21.38
2023-02-16T07:07:16.625Z,21.38
2023-02-16T07:10:20.019Z,21.37
2023-02-16T07:13:22.939Z,21.36
2023-02-16T07:16:25.858Z,21.37
2023-02-16T07:19:32.325Z,21.36
2023-02-16T07:22:36.520Z,21.36
2023-02-16T07:25:39.376Z,21.36
2023-02-16T07:28:42.261Z,21.37
2023-02-16T07:31:45.154Z,21.39
2023-02-16T07:34:48.180Z,21.41
2023-02-16T07:37:52.420Z,21.43
2023-02-16T07:40:55.213Z,21.46
2023-02-16T07:43:58.056Z,21.48
2023-02-16T07:47:01.141Z,21.48
2023-02-16T07:50:04.003Z,21.50
2023-02-16T07:53:09.133Z,21.52
2023-02-16T07:56:20.731Z,21.54
2023-02-16T07:59:23.637Z,21.54
2023-02-16T08:02:27.367Z,21.54
2023-02-16T08:05:30.705Z,21.53
2023-02-16T08:08:34.996Z,21.54
2023-02-16T08:11:37.791Z,21.53
2023-02-16T08:14:41.357Z,21.52
2023-02-16T08:17:44.467Z,21.51
2023-02-16T08:21:03.184Z,21.50
2023-02-16T08:24:09.539Z,21.50
2023-02-16T08:27:12.585Z,21.49
2023-02-16T08:30:18.357Z,21.47
2023-02-16T08:33:21.374Z,21.47
2023-02-16T08:36:26.408Z,21.46
2023-02-16T08:39:32.850Z,21.46
2023-02-16T08:42:35.788Z,21.46
2023-02-16T08:45:38.646Z,21.44
2023-02-16T08:48:41.499Z,21.44
2023-02-16T08:51:46.409Z,21.43
2023-02-16T08:54:50.846Z,21.43
2023-02-16T08:57:53.715Z,21.41
2023-02-16T09:00:57.225Z,21.41
2023-02-16T09:04:00.106Z,21.41
2023-02-16T09:07:03.016Z,21.39
2023-02-16T09:10:08.564Z,21.41
2023-02-16T09:13:14.205Z,21.40
2023-02-16T09:16:19.119Z,21.40
2023-02-16T09:19:22.884Z,21.41
2023-02-16T09:22:25.726Z,21.42
2023-02-16T09:25:29.898Z,21.43
2023-02-16T09:28:32.878Z,21.42
2023-02-16T09:31:39.598Z,21.43
2023-02-16T09:34:44.599Z,21.43
2023-02-16T09:37:47.417Z,21.43
2023-02-16T09:40:51.726Z,21.43
2023-02-16T09:43:59.772Z,21.43
2023-02-16T09:47:05.857Z,21.44
2023-02-16T09:50:27.695Z,21.43
2023-02-16T09:53:45.324Z,21.44
2023-02-16T09:56:57.538Z,21.45
2023-02-16T10:00:08.656Z,21.45
2023-02-16T10:03:23.754Z,21.46
2023-02-16T10:06:44.023Z,21.46
2023-02-16T10:09:51.423Z,21.47
2023-02-16T10:12:59.518Z,21.46
2023-02-16T10:16:07.008Z,21.45
2023-02-16T10:19:20.636Z,21.45
2023-02-16T10:22:32.055Z,21.46
2023-02-16T10:25:42.148Z,21.45
2023-02-16T10:28:49.393Z,21.45
2023-02-16T10:32:03.620Z,21.44
2023-02-16T10:35:15.214Z,21.44
2023-02-16T10:38:24.045Z,21.43
2023-02-16T10:41:33.955Z,21.44
2023-02-16T10:44:42.854Z,21.44
2023-02-16T10:47:47.186Z,21.44
2023-02-16T10:50:58.702Z,21.43
2023-02-16T10:54:05.568Z,21.43
2023-02-16T10:57:21.130Z,21.44
2023-02-16T11:00:38.779Z,21.43
2023-02-16T11:03:47.731Z,21.41
2023-02-16T11:07:04.996Z,21.41
2023-02-16T11:10:22.288Z,21.41
2023-02-16T11:13:29.444Z,21.40
2023-02-16T11:16:35.583Z,21.40
2023-02-16T11:19:40.044Z,21.40
2023-02-16T11:22:42.975Z,21.40
2023-02-16T11:25:55.378Z,21.41
2023-02-16T11:29:14.596Z,21.42
2023-02-16T11:32:21.461Z,21.42
2023-02-16T11:35:24.400Z,21.41
2023-02-16T11:38:30.616Z,21.41
2023-02-16T11:41:36.713Z,21.40
2023-02-16T11:44:44.530Z,21.41
2023-02-16T11:47:54.727Z,21.40
2023-02-16T11:51:00.207Z,21.40
2023-02-16T11:54:09.671Z,21.41
2023-02-16T11:57:15.692Z,21.41
2023-02-16T12:00:21.963Z,21.41
2023-02-16T12:03:44.634Z,21.41
2023-02-16T12:07:00.570Z,21.42
2023-02-16T12:10:09.756Z,21.43
2023-02-16T12:13:23.036Z,21.43
2023-02-16T12:16:35.238Z,21.42
2023-02-16T12:19:42.814Z,21.42
2023-02-16T12:22:49.256Z,21.42
2023-02-16T12:26:05.821Z,21.42
2023-02-16T12:29:20.670Z,21.41
2023-02-16T12:32:44.544Z,21.42
2023-02-16T12:36:01.969Z,21.42
2023-02-16T12:39:17.914Z,21.42
2023-02-16T12:42:42.943Z,21.42
2023-02-16T12:45:47.492Z,21.42
2023-02-16T12:48:55.961Z,21.42
2023-02-16T12:52:07.173Z,21.42
2023-02-16T12:55:22.049Z,21.43
2023-02-16T12:58:29.913Z,21.42
2023-02-16T13:01:36.718Z,21.42
2023-02-16T13:04:43.708Z,21.42
2023-02-16T13:07:51.861Z,21.41
2023-02-16T13:11:01.429Z,21.43
2023-02-16T13:14:12.075Z,21.43
2023-02-16T13:17:19.630Z,21.44
2023-02-16T13:20:24.668Z,21.43
2023-02-16T13:23:42.655Z,21.44
2023-02-16T13:27:01.525Z,21.46
2023-02-16T13:30:37.126Z,21.46
2023-02-16T13:34:06.338Z,21.46
2023-02-16T13:37:35.553Z,21.46
2023-02-16T13:41:11.723Z,21.46
2023-02-16T13:44:17.862Z,21.47
2023-02-16T13:47:26.857Z,21.46
2023-02-16T13:50:32.820Z,21.45
2023-02-16T13:53:39.415Z,21.46
2023-02-16T13:56:43.632Z,21.46
2023-02-16T13:59:55.942Z,21.46
2023-02-16T14:03:02.112Z,21.46
2023-02-16T14:06:32.272Z,21.46
2023-02-16T14:09:50.835Z,21.46
2023-02-16T14:12:55.152Z,21.46
2023-02-16T14:16:02.492Z,21.47
2023-02-16T14:19:18.773Z,21.48
2023-02-16T14:22:25.171Z,21.49
2023-02-16T14:25:39.542Z,21.48
2023-02-16T14:29:10.175Z,21.49
2023-02-16T14:32:24.394Z,21.48
2023-02-16T14:35:31.006Z,21.49
2023-02-16T14:38:36.877Z,21.49
2023-02-16T14:41:41.586Z,21.48
2023-02-16T14:45:02.863Z,21.48
2023-02-16T14:48:19.298Z,21.48
2023-02-16T14:51:52.459Z,21.48
2023-02-16T14:55:24.110Z,21.49
2023-02-16T14:58:32.740Z,21.48
2023-02-16T15:01:42.629Z,21.49
2023-02-16T15:04:46.191Z,21.49
2023-02-16T15:07:52.368Z,21.50
2023-02-16T15:10:55.363Z,21.49
2023-02-16T15:14:04.779Z,21.49
2023-02-16T15:17:10.113Z,21.49
2023-02-16T15:20:23.200Z,21.48
2023-02-16T15:23:28.239Z,21.48
2023-02-16T15:26:33.182Z,21.48
2023-02-16T15:29:36.352Z,21.47
2023-02-16T15:32:41.185Z,21.47
2023-02-16T15:35:46.739Z,21.47
2023-02-16T15:38:57.219Z,21.48
2023-02-16T15:42:19.839Z,21.48
2023-02-16T15:45:28.425Z,21.48
2023-02-16T15:48:34.593Z,21.48
2023-02-16T15:51:38.379Z,21.46
2023-02-16T15:54:42.275Z,21.46
2023-02-16T15:57:45.527Z,21.44
2023-02-16T16:00:48.803Z,21.43
2023-02-16T16:03:53.847Z,21.43
2023-02-16T16:06:57.436Z,21.43
2023-02-16T16:10:01.372Z,21.43
2023-02-16T16:13:06.618Z,21.42
2023-02-16T16:16:10.095Z,21.41
2023-02-16T16:19:19.426Z,21.42
2023-02-16T16:22:42.899Z,21.43
2023-02-16T16:25:48.226Z,21.44
2023-02-16T16:28:51.592Z,21.44
2023-02-16T16:31:55.007Z,21.44
2023-02-16T16:35:01.071Z,21.44
2023-02-16T16:38:05.199Z,21.44
2023-02-16T16:41:18.158Z,21.43
2023-02-16T16:44:34.500Z,21.46
2023-02-16T16:47:40.020Z,21.45
2023-02-16T16:50:44.458Z,21.45
2023-02-16T16:53:55.402Z,21.46
2023-02-16T16:56:58.363Z,21.48
2023-02-16T17:00:01.266Z,21.48
2023-02-16T17:03:05.886Z,21.48
2023-02-16T17:06:10.412Z,21.49
2023-02-16T17:09:15.809Z,21.50
2023-02-16T17:12:19.531Z,21.51
2023-02-16T17:15:30.574Z,21.50
2023-02-16T17:18:33.717Z,21.50
2023-02-16T17:21:37.942Z,21.50
2023-02-16T17:24:40.877Z,21.49
2023-02-16T17:27:43.767Z,21.50
2023-02-16T17:30:47.026Z,21.49
2023-02-16T17:33:49.871Z,21.48
2023-02-16T17:36:54.101Z,21.48
2023-02-16T17:39:56.911Z,21.48
2023-02-16T17:42:59.854Z,21.47
2023-02-16T17:46:06.369Z,21.48
2023-02-16T17:49:11.931Z,21.49
2023-02-16T17:52:16.193Z,21.50
2023-02-16T17:55:19.126Z,21.49
2023-02-16T17:58:23.506Z,21.48
2023-02-16T18:01:26.568Z,21.49
2023-02-16T18:04:29.775Z,21.48
2023-02-16T18:07:34.038Z,21.48
2023-02-16T18:10:39.957Z,21.48
2023-02-16T18:13:42.891Z,21.48
2023-02-16T18:16:45.792Z,21.48
2023-02-16T18:19:48.715Z,21.48
2023-02-16T18:22:53.030Z,21.50
2023-02-16T18:25:55.944Z,21.50
2023-02-16T18:28:58.895Z,21.52
2023-02-16T18:32:03.107Z,21.53
2023-02-16T18:35:06.663Z,21.52
2023-02-16T18:38:10.892Z,21.52
2023-02-16T18:41:13.901Z,21.53
2023-02-16T18:44:17.044Z,21.54
2023-02-16T18:47:19.991Z,21.54
2023-02-16T18:50:22.848Z,21.54
2023-02-16T18:53:27.134Z,21.55
2023-02-16T18:56:29.970Z,21.54
2023-02-16T18:59:32.879Z,21.53
2023-02-16T19:02:36.746Z,21.53
2023-02-16T19:05:39.728Z,21.52
2023-02-16T19:08:44.033Z,21.51
2023-02-16T19:11:47.004Z,21.52
2023-02-16T19:14:49.839Z,21.52
2023-02-16T19:17:53.104Z,21.52
2023-02-16T19:20:56.329Z,21.52
2023-02-16T19:24:00.918Z,21.51
2023-02-16T19:27:04.088Z,21.51
2023-02-16T19:30:08.613Z,21.51
2023-02-16T19:33:11.504Z,21.53
2023-02-16T19:36:15.782Z,21.54
2023-02-16T19:39:20.039Z,21.55
2023-02-16T19:42:22.933Z,21.53
2023-02-16T19:45:25.869Z,21.54
2023-02-16T19:48:29.215Z,21.56
2023-02-16T19:51:32.175Z,21.55
2023-02-16T19:54:37.128Z,21.56
2023-02-16T19:57:39.978Z,21.57
2023-02-16T20:00:42.921Z,21.57
2023-02-16T20:03:46.524Z,21.58
2023-02-16T20:06:49.742Z,21.58
2023-02-16T20:09:54.080Z,21.58
2023-02-16T20:12:57.105Z,21.57
2023-02-16T20:16:02.382Z,21.57
2023-02-16T20:19:05.380Z,21.56
2023-02-16T20:22:08.501Z,21.56
2023-02-16T20:25:12.870Z,21.55
2023-02-16T20:28:15.779Z,21.54
2023-02-16T20:31:21.120Z,21.54
2023-02-16T20:34:26.088Z,21.53
2023-02-16T20:37:30.218Z,21.53
2023-02-16T20:40:34.451Z,21.52
2023-02-16T20:43:38.144Z,21.53
2023-02-16T20:46:41.847Z,21.52
2023-02-16T20:49:44.825Z,21.51
2023-02-16T20:52:48.159Z,21.50
2023-02-16T20:56:00.614Z,21.50
2023-02-16T20:59:04.583Z,21.49
2023-02-16T21:02:08.012Z,21.48
2023-02-16T21:05:11.436Z,21.48
2023-02-16T21:08:14.566Z,21.49
2023-02-16T21:11:19.394Z,21.48
2023-02-16T21:14:22.368Z,21.49
2023-02-16T21:17:25.333Z,21.49
2023-02-16T21:20:28.166Z,21.49
2023-02-16T21:23:31.231Z,21.49
2023-02-16T21:26:35.606Z,21.50
2023-02-16T21:29:39.304Z,21.49
2023-02-16T21:32:42.226Z,21.50
2023-02-16T21:35:45.218Z,21.50
2023-02-16T21:38:48.812Z,21.49
2023-02-16T21:41:52.065Z,21.50
2023-02-16T21:45:12.390Z,21.51
2023-02-16T21:48:33.167Z,21.52
2023-02-16T21:51:38.321Z,21.52
2023-02-16T21:54:58.843Z,21.52
2023-02-16T21:58:03.432Z,21.53
2023-02-16T22:01:06.462Z,21.54
2023-02-16T22:04:12.127Z,21.54
2023-02-16T22:07:15.166Z,21.55
2023-02-16T22:10:18.121Z,21.56
2023-02-16T22:13:22.578Z,21.55
2023-02-16T22:16:26.372Z,21.55
2023-02-16T22:19:29.184Z,21.56
2023-02-16T22:22:32.020Z,21.56
2023-02-16T22:25:34.821Z,21.56
2023-02-16T22:28:39.097Z,21.57
2023-02-16T22:31:45.527Z,21.58
2023-02-16T22:34:48.446Z,21.58
2023-02-16T22:37:51.255Z,21.57
2023-02-16T22:40:54.119Z,21.55
2023-02-16T22:44:00.057Z,21.54
2023-02-16T22:47:02.909Z,21.54
2023-02-16T22:50:07.163Z,21.53
2023-02-16T22:53:09.969Z,21.52
2023-02-16T22:56:15.359Z,21.51
2023-02-16T22:59:19.654Z,21.50
2023-02-16T23:02:22.464Z,21.51
2023-02-16T23:05:25.356Z,21.49
2023-02-16T23:08:28.220Z,21.49
2023-02-16T23:11:31.580Z,21.47
2023-02-16T23:14:39.111Z,21.48
2023-02-16T23:17:41.968Z,21.46
2023-02-16T23:20:44.782Z,21.46
2023-02-16T23:23:49.191Z,21.46
2023-02-16T23:26:52.719Z,21.46
2023-02-16T23:29:57.071Z,21.45
2023-02-16T23:32:59.919Z,21.45
2023-02-16T23:36:03.204Z,21.46
2023-02-16T23:39:08.366Z,21.46
2023-02-16T23:42:11.262Z,21.46
2023-02-16T23:45:15.898Z,21.46
2023-02-16T23:48:18.735Z,21.46
2023-02-16T23:51:21.570Z,21.46
2023-02-16T23:54:24.323Z,21.46
2023-02-16T23:57:27.126Z,21.46
